Time;durP1;ratioP1;P1;durP2;ratioP2;P2;SDS_P1;SDS_P2;PMS_P1;PMS_P2;Temp;Humidity;BMP_temperature;BMP_pressure;BME280_temperature;BME280_humidity;BME280_pressure;Samples;Min_cycle;Max_cycle;Signal;HPM_P1;HPM_P2
2023/09/26 00:00:26;;;;;;;3.30;2.17;;;10.10;99.90;;;;;;25590367;23;20059;-59
2023/09/26 00:10:28;;;;;;;3.05;2.00;;;10.00;99.90;;;;;;25590260;23;20005;-48
2023/09/26 00:20:31;;;;;;;5.07;2.38;;;9.90;99.90;;;;;;25589888;23;20001;-58
2023/09/26 00:30:33;;;;;;;5.25;2.08;;;9.90;99.90;;;;;;25589690;23;20504;-59
2023/09/26 00:40:39;;;;;;;4.53;1.80;;;9.90;99.90;;;;;;25587764;23;20013;-49
2023/09/26 00:50:41;;;;;;;2.75;1.48;;;9.90;99.90;;;;;;25589022;23;20001;-59
2023/09/26 01:00:44;;;;;;;2.80;1.67;;;9.90;99.90;;;;;;25589192;23;20555;-52
2023/09/26 01:10:46;;;;;;;3.45;2.00;;;9.90;99.90;;;;;;25588780;23;20005;-52
2023/09/26 01:20:47;;;;;;;3.63;1.88;;;9.80;99.90;;;;;;25588758;23;20013;-59
2023/09/26 01:30:49;;;;;;;4.03;1.85;;;9.80;99.90;;;;;;25588123;23;20016;-59
2023/09/26 01:40:51;;;;;;;3.85;1.90;;;9.90;99.90;;;;;;25593749;23;20013;-59
2023/09/26 01:50:53;;;;;;;4.20;1.90;;;10.00;99.90;;;;;;25569301;23;20009;-52
2023/09/26 02:00:54;;;;;;;3.03;1.55;;;10.00;99.90;;;;;;25595367;23;20005;-59
2023/09/26 02:10:56;;;;;;;4.00;1.45;;;9.90;99.90;;;;;;25568530;23;20009;-58
2023/09/26 02:20:58;;;;;;;1.65;1.15;;;9.90;99.90;;;;;;25594328;23;20005;-59
2023/09/26 02:31:01;;;;;;;3.65;2.00;;;10.00;99.90;;;;;;25593799;23;20013;-52
2023/09/26 02:41:03;;;;;;;4.03;1.90;;;9.90;99.90;;;;;;25593423;23;20012;-52
2023/09/26 02:51:06;;;;;;;2.33;1.60;;;9.80;99.90;;;;;;25566452;23;20083;-58
2023/09/26 03:01:07;;;;;;;4.65;1.60;;;9.90;99.90;;;;;;25593047;23;20009;-59
2023/09/26 03:11:09;;;;;;;2.30;1.50;;;9.90;99.90;;;;;;25591522;23;20008;-59
2023/09/26 03:21:14;;;;;;;3.08;1.48;;;10.00;99.90;;;;;;25591875;23;20024;-52
2023/09/26 03:31:15;;;;;;;3.08;1.52;;;9.90;99.90;;;;;;25591609;23;20013;-58
2023/09/26 03:41:17;;;;;;;2.40;1.40;;;9.80;99.90;;;;;;25590467;23;20340;-59
2023/09/26 03:51:19;;;;;;;3.22;1.63;;;10.00;99.90;;;;;;25590154;23;20001;-59
2023/09/26 04:01:20;;;;;;;3.22;1.08;;;10.10;99.90;;;;;;25589153;23;20071;-52
2023/09/26 04:11:22;;;;;;;3.95;1.08;;;10.30;99.90;;;;;;25589278;23;20495;-52
2023/09/26 04:21:25;;;;;;;2.83;1.27;;;10.70;99.90;;;;;;25588730;23;20016;-52
2023/09/26 04:31:27;;;;;;;3.33;1.00;;;11.10;99.90;;;;;;25589107;23;20087;-49
2023/09/26 04:41:29;;;;;;;1.95;0.95;;;11.40;99.90;;;;;;25588452;23;20036;-52
2023/09/26 04:51:30;;;;;;;2.05;1.15;;;10.80;99.90;;;;;;25588691;23;20060;-51
2023/09/26 05:01:32;;;;;;;2.22;0.93;;;11.10;99.90;;;;;;25588410;23;20013;-51
2023/09/26 05:11:34;;;;;;;4.35;1.00;;;10.80;99.90;;;;;;25590770;23;20063;-51
2023/09/26 05:21:35;;;;;;;1.88;1.00;;;11.00;99.90;;;;;;25597536;23;20036;-59
2023/09/26 05:31:37;;;;;;;2.15;1.00;;;11.40;99.90;;;;;;25595527;23;20056;-52
2023/09/26 05:41:39;;;;;;;1.35;0.98;;;11.60;99.90;;;;;;25595292;23;20014;-49
2023/09/26 05:51:41;;;;;;;2.28;1.20;;;12.10;99.90;;;;;;25595089;23;20441;-59
2023/09/26 06:01:42;;;;;;;2.75;1.42;;;11.70;99.90;;;;;;25594833;23;20013;-59
2023/09/26 06:11:45;;;;;;;1.58;1.23;;;11.20;99.90;;;;;;25593470;23;20005;-49
2023/09/26 06:21:46;;;;;;;1.90;1.30;;;10.90;99.90;;;;;;25593069;23;20001;-53
2023/09/26 06:31:48;;;;;;;2.58;1.10;;;10.70;99.90;;;;;;25593036;23;20013;-50
2023/09/26 06:41:50;;;;;;;1.95;1.30;;;10.90;99.90;;;;;;25593118;23;20437;-59
2023/09/26 06:51:53;;;;;;;2.92;1.30;;;11.10;99.90;;;;;;25592410;23;20029;-59
2023/09/26 07:01:54;;;;;;;1.90;1.27;;;11.40;99.90;;;;;;25592245;23;20001;-60
2023/09/26 07:11:56;;;;;;;2.28;1.20;;;12.10;99.90;;;;;;25591986;23;20001;-52
2023/09/26 07:21:58;;;;;;;1.58;1.20;;;13.00;99.90;;;;;;25591302;23;20437;-51
2023/09/26 07:32:00;;;;;;;2.25;1.50;;;13.90;99.90;;;;;;25590926;23;20025;-51
2023/09/26 07:42:02;;;;;;;2.40;1.38;;;14.60;99.90;;;;;;25590836;23;20316;-52
2023/09/26 07:52:04;;;;;;;2.75;1.40;;;15.80;99.90;;;;;;25590316;23;20005;-61
2023/09/26 08:02:06;;;;;;;2.03;1.30;;;16.70;99.90;;;;;;25590092;23;20009;-62
2023/09/26 08:12:08;;;;;;;1.75;1.10;;;17.50;99.90;;;;;;25589531;23;20009;-62
2023/09/26 08:22:10;;;;;;;2.05;1.50;;;18.20;99.90;;;;;;25589091;23;20257;-61
2023/09/26 08:32:11;;;;;;;3.58;1.55;;;18.50;99.90;;;;;;25589395;23;20341;-61
2023/09/26 08:42:24;;;;;;;2.17;1.50;;;18.60;99.90;;;;;;25586807;23;20009;-61
2023/09/26 08:52:26;;;;;;;3.75;1.50;;;19.10;99.90;;;;;;25629122;23;20005;-62
2023/09/26 09:02:32;;;;;;;3.05;1.65;;;19.40;99.90;;;;;;25588391;23;20009;-62
2023/09/26 09:12:37;;;;;;;1.65;1.50;;;19.80;99.90;;;;;;25588335;23;20009;-49
2023/09/26 09:22:39;;;;;;;2.28;1.83;;;20.10;99.90;;;;;;25587543;23;20071;-61
2023/09/26 09:32:42;;;;;;;2.35;1.98;;;20.50;99.90;;;;;;25587429;23;20013;-61
2023/09/26 09:42:44;;;;;;;5.78;1.80;;;20.60;99.90;;;;;;25587616;23;20060;-61
2023/09/26 09:52:49;;;;;;;6.25;2.53;;;20.60;99.90;;;;;;25587177;23;20005;-60
2023/09/26 10:02:58;;;;;;;18.63;9.32;;;20.70;99.90;;;;;;25592123;23;20028;-61
2023/09/26 10:13:01;;;;;;;6.35;2.80;;;20.80;99.90;;;;;;25635242;23;20436;-60
2023/09/26 10:23:10;;;;;;;8.70;4.75;;;20.80;99.90;;;;;;25593550;23;20436;-60
2023/09/26 10:33:13;;;;;;;14.48;7.75;;;21.10;99.90;;;;;;25592842;23;20017;-61
2023/09/26 10:43:17;;;;;;;6.57;3.85;;;21.00;99.90;;;;;;25592826;23;20051;-60
2023/09/26 10:53:20;;;;;;;5.68;3.60;;;21.30;99.90;;;;;;25592549;23;20005;-60
2023/09/26 11:03:23;;;;;;;4.63;3.55;;;21.90;99.90;;;;;;25592167;23;20008;-60
2023/09/26 11:13:25;;;;;;;5.78;3.70;;;21.90;99.90;;;;;;25591479;23;20004;-60
2023/09/26 11:23:39;;;;;;;7.80;4.47;;;22.00;99.90;;;;;;25591109;23;20008;-61
2023/09/26 11:33:41;;;;;;;5.68;4.10;;;21.90;99.90;;;;;;25606466;23;20013;-60
2023/09/26 11:43:46;;;;;;;6.13;4.35;;;22.40;99.90;;;;;;25590696;23;20020;-61
2023/09/26 11:53:49;;;;;;;6.60;4.70;;;22.00;99.90;;;;;;25631226;23;20440;-61
2023/09/26 12:03:50;;;;;;;6.88;5.00;;;22.50;99.90;;;;;;25589917;23;20009;-61
2023/09/26 12:13:52;;;;;;;7.35;4.80;;;22.50;99.90;;;;;;25589640;23;20001;-62
2023/09/26 12:23:54;;;;;;;5.38;4.40;;;22.50;99.90;;;;;;25588828;23;20015;-53
2023/09/26 12:33:56;;;;;;;7.68;5.00;;;22.80;99.90;;;;;;25589700;23;20448;-61
2023/09/26 12:43:58;;;;;;;6.63;5.40;;;22.70;99.90;;;;;;25588719;23;20519;-62
2023/09/26 12:54:00;;;;;;;8.38;4.90;;;22.00;99.90;;;;;;25588408;23;20009;-62
2023/09/26 13:04:02;;;;;;;6.15;5.05;;;22.00;99.90;;;;;;25586828;23;20005;-62
2023/09/26 13:14:04;;;;;;;8.40;5.28;;;22.30;99.90;;;;;;25588299;23;20499;-62
2023/09/26 13:24:06;;;;;;;8.07;5.43;;;21.90;99.90;;;;;;25587583;23;20048;-63
2023/09/26 13:34:09;;;;;;;5.22;4.40;;;21.80;99.90;;;;;;25589635;23;20329;-51
2023/09/26 13:44:11;;;;;;;8.73;5.57;;;21.20;99.90;;;;;;25594800;23;20139;-61
2023/09/26 13:54:13;;;;;;;6.72;5.45;;;20.70;99.90;;;;;;25594607;23;20005;-55
2023/09/26 14:04:15;;;;;;;9.00;5.05;;;20.30;99.90;;;;;;25594063;23;20001;-61
2023/09/26 14:14:17;;;;;;;6.90;5.45;;;20.20;99.90;;;;;;25591274;23;20305;-62
2023/09/26 14:24:18;;;;;;;10.70;5.50;;;20.20;99.90;;;;;;25593630;23;20112;-62
2023/09/26 14:34:23;;;;;;;12.32;6.05;;;20.00;99.90;;;;;;25592896;23;20016;-63
2023/09/26 14:44:24;;;;;;;8.68;5.60;;;19.40;99.90;;;;;;25592431;23;20005;-61
2023/09/26 14:54:26;;;;;;;6.60;5.38;;;18.90;99.90;;;;;;25592736;23;20001;-60
2023/09/26 15:04:28;;;;;;;8.95;6.15;;;18.50;99.90;;;;;;25592483;23;20009;-61
2023/09/26 15:14:30;;;;;;;8.85;6.07;;;18.20;99.90;;;;;;25591831;23;20012;-61
2023/09/26 15:24:32;;;;;;;7.68;5.63;;;17.80;99.90;;;;;;25590690;23;20031;-61
2023/09/26 15:34:35;;;;;;;12.85;6.68;;;17.50;99.90;;;;;;25590883;23;20072;-60
2023/09/26 15:44:39;;;;;;;9.98;6.35;;;17.10;99.90;;;;;;25590513;23;20012;-60
2023/09/26 15:54:41;;;;;;;9.85;6.90;;;16.40;99.90;;;;;;25590408;23;20002;-60
2023/09/26 16:04:43;;;;;;;10.60;6.68;;;15.70;99.90;;;;;;25590113;23;20009;-60
2023/09/26 16:14:45;;;;;;;10.10;7.22;;;15.10;99.90;;;;;;25589723;23;20080;-60
2023/09/26 16:24:46;;;;;;;12.05;7.63;;;14.60;99.90;;;;;;25589193;23;20012;-59
2023/09/26 16:34:48;;;;;;;13.90;7.60;;;14.30;99.90;;;;;;25602706;23;20072;-59
2023/09/26 16:44:50;;;;;;;10.70;8.07;;;13.90;99.90;;;;;;25589594;23;20250;-60
2023/09/26 16:54:52;;;;;;;13.60;8.75;;;13.60;99.90;;;;;;25589429;23;20063;-60
2023/09/26 17:04:53;;;;;;;14.07;8.95;;;13.30;99.90;;;;;;25589455;23;20009;-51
2023/09/26 17:14:55;;;;;;;14.70;8.32;;;13.00;99.90;;;;;;25597148;23;20005;-59
2023/09/26 17:24:57;;;;;;;8.63;6.15;;;12.80;99.90;;;;;;25596847;23;20384;-59
2023/09/26 17:34:58;;;;;;;9.48;6.40;;;12.60;99.90;;;;;;25596451;23;20013;-59
2023/09/26 17:45:00;;;;;;;9.10;5.70;;;12.40;99.90;;;;;;25596235;23;20016;-59
2023/09/26 17:55:02;;;;;;;10.55;6.28;;;12.20;99.90;;;;;;25596085;23;20004;-59
2023/09/26 18:05:04;;;;;;;9.40;4.75;;;12.10;99.90;;;;;;25595463;23;20028;-47
2023/09/26 18:15:06;;;;;;;7.25;5.00;;;12.30;99.90;;;;;;25596486;23;20005;-60
2023/09/26 18:25:08;;;;;;;8.10;5.75;;;12.40;99.90;;;;;;25593752;23;20005;-59
2023/09/26 18:35:11;;;;;;;9.88;5.85;;;12.00;99.90;;;;;;25593942;23;20016;-59
2023/09/26 18:45:12;;;;;;;10.98;5.75;;;11.90;99.90;;;;;;25593723;23;20005;-59
2023/09/26 18:55:14;;;;;;;14.10;6.10;;;11.80;99.90;;;;;;25566750;23;20383;-59
2023/09/26 19:05:16;;;;;;;9.40;5.35;;;11.80;99.90;;;;;;25590613;23;20012;-60
2023/09/26 19:15:18;;;;;;;9.10;6.05;;;11.70;99.90;;;;;;25592882;23;20063;-59
2023/09/26 19:25:20;;;;;;;10.35;5.35;;;11.60;99.90;;;;;;25592153;23;20426;-59
2023/09/26 19:35:22;;;;;;;10.00;5.50;;;11.60;99.90;;;;;;25564119;23;20017;-59
2023/09/26 19:45:24;;;;;;;9.40;5.07;;;11.50;99.90;;;;;;25590892;23;20024;-49
2023/09/26 19:55:26;;;;;;;6.60;4.60;;;11.30;99.90;;;;;;25590427;23;20012;-59
2023/09/26 20:05:28;;;;;;;8.85;4.95;;;11.30;99.90;;;;;;25591625;23;20424;-51
2023/09/26 20:15:29;;;;;;;7.93;4.40;;;11.50;99.90;;;;;;25563761;23;20436;-53
2023/09/26 20:25:31;;;;;;;6.72;4.90;;;11.70;99.90;;;;;;25563240;23;20009;-59
2023/09/26 20:35:33;;;;;;;8.48;5.00;;;11.80;99.90;;;;;;25589061;23;20020;-59
2023/09/26 20:45:38;;;;;;;14.40;5.38;;;11.90;99.90;;;;;;25588914;23;20067;-53
2023/09/26 20:55:40;;;;;;;6.65;4.47;;;12.10;99.90;;;;;;25589030;23;20009;-47
2023/09/26 21:05:42;;;;;;;8.27;4.45;;;12.50;99.90;;;;;;25589156;23;20005;-52
2023/09/26 21:15:43;;;;;;;8.05;4.53;;;12.40;99.90;;;;;;25589048;23;20031;-49
2023/09/26 21:25:45;;;;;;;12.55;4.72;;;12.40;99.90;;;;;;25588521;23;20012;-50
2023/09/26 21:35:47;;;;;;;7.97;4.95;;;12.20;99.90;;;;;;25488809;23;20018;-59
2023/09/26 21:45:50;;;;;;;7.90;5.00;;;11.90;99.90;;;;;;25465277;23;20006;-59
2023/09/26 21:55:52;;;;;;;9.23;5.63;;;11.60;99.90;;;;;;25468931;23;20060;-59
2023/09/26 22:05:54;;;;;;;7.65;4.68;;;11.70;99.90;;;;;;25472379;23;20014;-52
2023/09/26 22:15:55;;;;;;;10.80;4.22;;;12.10;99.90;;;;;;25472018;23;20013;-50
2023/09/26 22:26:01;;;;;;;6.43;4.15;;;12.50;99.90;;;;;;25471431;23;20009;-59
2023/09/26 22:36:03;;;;;;;6.13;3.80;;;12.60;99.90;;;;;;25450875;23;20445;-58
2023/09/26 22:46:05;;;;;;;8.48;4.13;;;12.50;99.90;;;;;;25470295;23;20017;-53
2023/09/26 22:56:07;;;;;;;5.70;4.07;;;12.30;99.90;;;;;;25470222;23;20068;-50
2023/09/26 23:06:09;;;;;;;5.55;4.15;;;12.10;99.90;;;;;;25469810;23;20271;-58
2023/09/26 23:16:10;;;;;;;9.00;3.90;;;11.90;99.90;;;;;;25469442;23;20012;-58
2023/09/26 23:26:16;;;;;;;9.73;4.57;;;11.90;99.90;;;;;;25469097;23;20502;-50
2023/09/26 23:36:18;;;;;;;6.90;4.75;;;11.60;99.90;;;;;;25575668;23;20039;-59
2023/09/26 23:46:20;;;;;;;7.80;4.47;;;11.40;99.90;;;;;;25591481;23;20005;-51
2023/09/26 23:56:22;;;;;;;8.90;4.70;;;11.20;99.90;;;;;;25591037;23;20001;-59
